sensor_id;sensor_type;location;lat;lon;timestamp;P1;durP1;ratioP1;P2;durP2;ratioP2
35324;SDS011;35135;47.510;19.036;2024-01-15T00:02:17;16.20;;;14.48;;
35324;SDS011;35135;47.510;19.036;2024-01-15T00:04:42;17.33;;;15.43;;
35324;SDS011;35135;47.510;19.036;2024-01-15T00:07:08;17.83;;;14.75;;
35324;SDS011;35135;47.510;19.036;2024-01-15T00:09:34;16.08;;;14.38;;
35324;SDS011;35135;47.510;19.036;2024-01-15T00:12:00;18.55;;;15.35;;
35324;SDS011;35135;47.510;19.036;2024-01-15T00:14:26;16.23;;;14.50;;
35324;SDS011;35135;47.510;19.036;2024-01-15T00:16:52;15.90;;;14.20;;
35324;SDS011;35135;47.510;19.036;2024-01-15T00:19:20;16.38;;;14.68;;
35324;SDS011;35135;47.510;19.036;2024-01-15T00:21:46;16.45;;;14.70;;
35324;SDS011;35135;47.510;19.036;2024-01-15T00:24:12;16.85;;;15.05;;
35324;SDS011;35135;47.510;19.036;2024-01-15T00:26:39;17.23;;;15.43;;
35324;SDS011;35135;47.510;19.036;2024-01-15T00:29:06;16.00;;;14.30;;
35324;SDS011;35135;47.510;19.036;2024-01-15T00:31:32;18.75;;;15.82;;
35324;SDS011;35135;47.510;19.036;2024-01-15T00:33:58;16.60;;;14.90;;
35324;SDS011;35135;47.510;19.036;2024-01-15T00:36:24;16.40;;;14.68;;
35324;SDS011;35135;47.510;19.036;2024-01-15T00:38:50;17.52;;;15.65;;
35324;SDS011;35135;47.510;19.036;2024-01-15T00:41:16;16.85;;;15.13;;
35324;SDS011;35135;47.510;19.036;2024-01-15T00:43:44;16.33;;;14.63;;
35324;SDS011;35135;47.510;19.036;2024-01-15T00:46:10;17.08;;;15.27;;
35324;SDS011;35135;47.510;19.036;2024-01-15T00:48:36;18.38;;;15.23;;
35324;SDS011;35135;47.510;19.036;2024-01-15T00:51:02;17.30;;;15.50;;
35324;SDS011;35135;47.510;19.036;2024-01-15T00:53:29;17.63;;;15.73;;
35324;SDS011;35135;47.510;19.036;2024-01-15T00:55:55;16.23;;;14.55;;
35324;SDS011;35135;47.510;19.036;2024-01-15T00:58:21;16.65;;;14.85;;
35324;SDS011;35135;47.510;19.036;2024-01-15T01:00:46;17.60;;;15.80;;
35324;SDS011;35135;47.510;19.036;2024-01-15T01:03:12;17.23;;;15.43;;
35324;SDS011;35135;47.510;19.036;2024-01-15T01:05:38;19.15;;;15.45;;
35324;SDS011;35135;47.510;19.036;2024-01-15T01:08:03;17.15;;;15.18;;
35324;SDS011;35135;47.510;19.036;2024-01-15T01:10:29;17.02;;;15.18;;
35324;SDS011;35135;47.510;19.036;2024-01-15T01:12:55;17.98;;;16.08;;
35324;SDS011;35135;47.510;19.036;2024-01-15T01:15:21;17.88;;;16.05;;
35324;SDS011;35135;47.510;19.036;2024-01-15T01:17:47;16.27;;;14.30;;
35324;SDS011;35135;47.510;19.036;2024-01-15T01:20:13;17.35;;;15.15;;
35324;SDS011;35135;47.510;19.036;2024-01-15T01:22:40;18.13;;;16.25;;
35324;SDS011;35135;47.510;19.036;2024-01-15T01:25:06;17.00;;;15.18;;
35324;SDS011;35135;47.510;19.036;2024-01-15T01:27:32;16.60;;;14.90;;
35324;SDS011;35135;47.510;19.036;2024-01-15T01:29:57;18.20;;;16.02;;
35324;SDS011;35135;47.510;19.036;2024-01-15T01:32:23;16.92;;;15.13;;
35324;SDS011;35135;47.510;19.036;2024-01-15T01:34:49;16.40;;;14.45;;
35324;SDS011;35135;47.510;19.036;2024-01-15T01:37:14;16.95;;;15.15;;
35324;SDS011;35135;47.510;19.036;2024-01-15T01:39:40;16.55;;;14.60;;
35324;SDS011;35135;47.510;19.036;2024-01-15T01:42:07;17.27;;;15.48;;
35324;SDS011;35135;47.510;19.036;2024-01-15T01:44:33;17.13;;;15.32;;
35324;SDS011;35135;47.510;19.036;2024-01-15T01:46:59;17.55;;;15.68;;
35324;SDS011;35135;47.510;19.036;2024-01-15T01:49:26;18.02;;;16.02;;
35324;SDS011;35135;47.510;19.036;2024-01-15T01:51:52;17.75;;;15.18;;
35324;SDS011;35135;47.510;19.036;2024-01-15T01:54:21;16.60;;;14.90;;
35324;SDS011;35135;47.510;19.036;2024-01-15T01:56:47;17.65;;;15.85;;
35324;SDS011;35135;47.510;19.036;2024-01-15T01:59:14;17.17;;;15.38;;
35324;SDS011;35135;47.510;19.036;2024-01-15T02:01:40;17.52;;;15.73;;
35324;SDS011;35135;47.510;19.036;2024-01-15T02:04:07;17.88;;;15.95;;
35324;SDS011;35135;47.510;19.036;2024-01-15T02:06:33;17.20;;;15.43;;
35324;SDS011;35135;47.510;19.036;2024-01-15T02:08:59;17.13;;;15.32;;
35324;SDS011;35135;47.510;19.036;2024-01-15T02:11:25;17.02;;;15.30;;
35324;SDS011;35135;47.510;19.036;2024-01-15T02:13:51;17.42;;;15.55;;
35324;SDS011;35135;47.510;19.036;2024-01-15T02:16:17;17.45;;;15.55;;
35324;SDS011;35135;47.510;19.036;2024-01-15T02:18:43;17.75;;;15.95;;
35324;SDS011;35135;47.510;19.036;2024-01-15T02:21:09;17.95;;;16.00;;
35324;SDS011;35135;47.510;19.036;2024-01-15T02:23:36;17.55;;;15.75;;
35324;SDS011;35135;47.510;19.036;2024-01-15T02:26:02;17.83;;;15.93;;
35324;SDS011;35135;47.510;19.036;2024-01-15T02:28:29;17.15;;;15.35;;
35324;SDS011;35135;47.510;19.036;2024-01-15T02:30:55;17.48;;;15.68;;
35324;SDS011;35135;47.510;19.036;2024-01-15T02:33:21;17.58;;;15.73;;
35324;SDS011;35135;47.510;19.036;2024-01-15T02:35:47;17.75;;;15.85;;
35324;SDS011;35135;47.510;19.036;2024-01-15T02:38:15;18.20;;;16.40;;
35324;SDS011;35135;47.510;19.036;2024-01-15T02:40:41;17.48;;;15.68;;
35324;SDS011;35135;47.510;19.036;2024-01-15T02:43:08;17.17;;;15.43;;
35324;SDS011;35135;47.510;19.036;2024-01-15T02:45:33;17.42;;;15.52;;
35324;SDS011;35135;47.510;19.036;2024-01-15T02:47:59;17.20;;;15.50;;
35324;SDS011;35135;47.510;19.036;2024-01-15T02:50:25;18.05;;;15.65;;
35324;SDS011;35135;47.510;19.036;2024-01-15T02:52:51;18.13;;;16.23;;
35324;SDS011;35135;47.510;19.036;2024-01-15T02:55:17;16.45;;;14.75;;
35324;SDS011;35135;47.510;19.036;2024-01-15T02:57:43;17.83;;;15.95;;
35324;SDS011;35135;47.510;19.036;2024-01-15T03:00:08;17.13;;;15.27;;
35324;SDS011;35135;47.510;19.036;2024-01-15T03:02:38;17.15;;;15.32;;
35324;SDS011;35135;47.510;19.036;2024-01-15T03:05:05;18.08;;;16.35;;
35324;SDS011;35135;47.510;19.036;2024-01-15T03:07:34;17.25;;;15.40;;
35324;SDS011;35135;47.510;19.036;2024-01-15T03:10:00;16.88;;;15.18;;
35324;SDS011;35135;47.510;19.036;2024-01-15T03:12:26;16.95;;;15.23;;
35324;SDS011;35135;47.510;19.036;2024-01-15T03:14:51;17.85;;;15.95;;
35324;SDS011;35135;47.510;19.036;2024-01-15T03:17:17;16.63;;;14.88;;
35324;SDS011;35135;47.510;19.036;2024-01-15T03:19:42;17.20;;;15.45;;
35324;SDS011;35135;47.510;19.036;2024-01-15T03:22:08;17.35;;;15.57;;
35324;SDS011;35135;47.510;19.036;2024-01-15T03:24:34;17.25;;;15.45;;
35324;SDS011;35135;47.510;19.036;2024-01-15T03:27:00;16.73;;;14.95;;
35324;SDS011;35135;47.510;19.036;2024-01-15T03:29:26;16.70;;;14.98;;
35324;SDS011;35135;47.510;19.036;2024-01-15T03:31:52;18.00;;;14.93;;
35324;SDS011;35135;47.510;19.036;2024-01-15T03:34:18;16.80;;;15.05;;
35324;SDS011;35135;47.510;19.036;2024-01-15T03:36:43;17.48;;;15.70;;
35324;SDS011;35135;47.510;19.036;2024-01-15T03:39:09;16.67;;;14.90;;
35324;SDS011;35135;47.510;19.036;2024-01-15T03:41:35;17.00;;;15.25;;
35324;SDS011;35135;47.510;19.036;2024-01-15T03:44:00;17.05;;;15.30;;
35324;SDS011;35135;47.510;19.036;2024-01-15T03:46:26;16.70;;;14.95;;
35324;SDS011;35135;47.510;19.036;2024-01-15T03:48:52;17.42;;;15.65;;
35324;SDS011;35135;47.510;19.036;2024-01-15T03:51:18;17.33;;;15.48;;
35324;SDS011;35135;47.510;19.036;2024-01-15T03:53:44;17.45;;;15.65;;
35324;SDS011;35135;47.510;19.036;2024-01-15T03:56:10;16.67;;;15.07;;
35324;SDS011;35135;47.510;19.036;2024-01-15T03:58:35;17.60;;;15.93;;
35324;SDS011;35135;47.510;19.036;2024-01-15T04:01:01;16.17;;;14.57;;
35324;SDS011;35135;47.510;19.036;2024-01-15T04:03:27;16.42;;;14.60;;
35324;SDS011;35135;47.510;19.036;2024-01-15T04:05:52;16.02;;;14.40;;
35324;SDS011;35135;47.510;19.036;2024-01-15T04:08:18;16.83;;;15.13;;
35324;SDS011;35135;47.510;19.036;2024-01-15T04:10:44;17.33;;;15.55;;
35324;SDS011;35135;47.510;19.036;2024-01-15T04:13:10;18.00;;;16.10;;
35324;SDS011;35135;47.510;19.036;2024-01-15T04:15:35;17.45;;;15.68;;
35324;SDS011;35135;47.510;19.036;2024-01-15T04:18:02;16.70;;;15.07;;
35324;SDS011;35135;47.510;19.036;2024-01-15T04:20:28;16.85;;;15.05;;
35324;SDS011;35135;47.510;19.036;2024-01-15T04:22:54;17.08;;;15.35;;
35324;SDS011;35135;47.510;19.036;2024-01-15T04:25:20;16.45;;;14.75;;
35324;SDS011;35135;47.510;19.036;2024-01-15T04:27:45;16.70;;;15.00;;
35324;SDS011;35135;47.510;19.036;2024-01-15T04:30:11;16.17;;;14.48;;
35324;SDS011;35135;47.510;19.036;2024-01-15T04:32:37;16.83;;;15.07;;
35324;SDS011;35135;47.510;19.036;2024-01-15T04:35:03;16.33;;;14.63;;
35324;SDS011;35135;47.510;19.036;2024-01-15T04:37:29;17.58;;;15.75;;
35324;SDS011;35135;47.510;19.036;2024-01-15T04:39:54;17.02;;;15.32;;
35324;SDS011;35135;47.510;19.036;2024-01-15T04:42:22;18.60;;;16.70;;
35324;SDS011;35135;47.510;19.036;2024-01-15T04:44:48;17.55;;;15.75;;
35324;SDS011;35135;47.510;19.036;2024-01-15T04:47:14;16.48;;;14.77;;
35324;SDS011;35135;47.510;19.036;2024-01-15T04:49:39;15.95;;;14.25;;
35324;SDS011;35135;47.510;19.036;2024-01-15T04:52:05;16.80;;;15.10;;
35324;SDS011;35135;47.510;19.036;2024-01-15T04:54:30;16.88;;;15.18;;
35324;SDS011;35135;47.510;19.036;2024-01-15T04:56:56;17.25;;;15.50;;
35324;SDS011;35135;47.510;19.036;2024-01-15T04:59:22;17.77;;;15.85;;
35324;SDS011;35135;47.510;19.036;2024-01-15T05:01:48;17.65;;;15.80;;
35324;SDS011;35135;47.510;19.036;2024-01-15T05:04:14;16.58;;;15.00;;
35324;SDS011;35135;47.510;19.036;2024-01-15T05:06:40;16.30;;;14.65;;
35324;SDS011;35135;47.510;19.036;2024-01-15T05:09:05;16.77;;;15.07;;
35324;SDS011;35135;47.510;19.036;2024-01-15T05:11:32;17.95;;;15.10;;
35324;SDS011;35135;47.510;19.036;2024-01-15T05:13:57;16.13;;;14.52;;
35324;SDS011;35135;47.510;19.036;2024-01-15T05:16:23;17.35;;;15.55;;
35324;SDS011;35135;47.510;19.036;2024-01-15T05:18:49;17.02;;;15.32;;
35324;SDS011;35135;47.510;19.036;2024-01-15T05:21:14;16.77;;;15.00;;
35324;SDS011;35135;47.510;19.036;2024-01-15T05:23:40;15.73;;;14.02;;
35324;SDS011;35135;47.510;19.036;2024-01-15T05:26:06;15.95;;;14.35;;
35324;SDS011;35135;47.510;19.036;2024-01-15T05:28:33;16.38;;;14.77;;
35324;SDS011;35135;47.510;19.036;2024-01-15T05:30:59;17.08;;;15.32;;
35324;SDS011;35135;47.510;19.036;2024-01-15T05:33:25;16.45;;;14.80;;
35324;SDS011;35135;47.510;19.036;2024-01-15T05:35:51;16.30;;;14.70;;
35324;SDS011;35135;47.510;19.036;2024-01-15T05:38:17;22.13;;;15.80;;
35324;SDS011;35135;47.510;19.036;2024-01-15T05:40:42;16.98;;;15.15;;
35324;SDS011;35135;47.510;19.036;2024-01-15T05:43:08;16.02;;;13.88;;
35324;SDS011;35135;47.510;19.036;2024-01-15T05:45:35;15.82;;;14.23;;
35324;SDS011;35135;47.510;19.036;2024-01-15T05:48:01;15.68;;;14.02;;
35324;SDS011;35135;47.510;19.036;2024-01-15T05:50:26;15.95;;;14.35;;
35324;SDS011;35135;47.510;19.036;2024-01-15T05:52:53;17.48;;;15.57;;
35324;SDS011;35135;47.510;19.036;2024-01-15T05:55:19;15.60;;;14.00;;
35324;SDS011;35135;47.510;19.036;2024-01-15T05:57:45;15.80;;;14.20;;
35324;SDS011;35135;47.510;19.036;2024-01-15T06:00:12;17.25;;;15.45;;
35324;SDS011;35135;47.510;19.036;2024-01-15T06:02:39;16.83;;;15.13;;
35324;SDS011;35135;47.510;19.036;2024-01-15T06:05:06;15.95;;;14.30;;
35324;SDS011;35135;47.510;19.036;2024-01-15T06:07:35;15.65;;;14.13;;
35324;SDS011;35135;47.510;19.036;2024-01-15T06:10:03;16.92;;;15.18;;
35324;SDS011;35135;47.510;19.036;2024-01-15T06:12:30;16.58;;;14.40;;
35324;SDS011;35135;47.510;19.036;2024-01-15T06:14:57;17.92;;;16.00;;
35324;SDS011;35135;47.510;19.036;2024-01-15T06:17:23;19.45;;;16.05;;
35324;SDS011;35135;47.510;19.036;2024-01-15T06:19:49;16.80;;;15.00;;
35324;SDS011;35135;47.510;19.036;2024-01-15T06:22:14;17.27;;;15.30;;
35324;SDS011;35135;47.510;19.036;2024-01-15T06:24:41;18.52;;;15.35;;
35324;SDS011;35135;47.510;19.036;2024-01-15T06:27:07;17.63;;;15.40;;
35324;SDS011;35135;47.510;19.036;2024-01-15T06:29:33;22.70;;;16.45;;
35324;SDS011;35135;47.510;19.036;2024-01-15T06:31:58;16.45;;;14.75;;
35324;SDS011;35135;47.510;19.036;2024-01-15T06:34:24;18.50;;;15.35;;
35324;SDS011;35135;47.510;19.036;2024-01-15T06:36:50;19.85;;;15.10;;
35324;SDS011;35135;47.510;19.036;2024-01-15T06:39:16;16.13;;;14.38;;
35324;SDS011;35135;47.510;19.036;2024-01-15T06:41:42;17.58;;;14.60;;
35324;SDS011;35135;47.510;19.036;2024-01-15T06:44:11;18.65;;;15.10;;
35324;SDS011;35135;47.510;19.036;2024-01-15T06:46:44;19.77;;;16.42;;
35324;SDS011;35135;47.510;19.036;2024-01-15T06:49:10;20.15;;;17.38;;
35324;SDS011;35135;47.510;19.036;2024-01-15T06:51:36;21.45;;;16.73;;
35324;SDS011;35135;47.510;19.036;2024-01-15T06:54:02;22.52;;;17.15;;
35324;SDS011;35135;47.510;19.036;2024-01-15T06:56:28;18.13;;;16.17;;
35324;SDS011;35135;47.510;19.036;2024-01-15T06:58:54;20.40;;;15.43;;
35324;SDS011;35135;47.510;19.036;2024-01-15T07:01:20;19.02;;;15.00;;
35324;SDS011;35135;47.510;19.036;2024-01-15T07:03:46;21.00;;;15.77;;
35324;SDS011;35135;47.510;19.036;2024-01-15T07:06:12;20.13;;;15.85;;
35324;SDS011;35135;47.510;19.036;2024-01-15T07:08:38;17.50;;;15.20;;
35324;SDS011;35135;47.510;19.036;2024-01-15T07:11:04;18.67;;;15.35;;
35324;SDS011;35135;47.510;19.036;2024-01-15T07:13:30;19.90;;;15.90;;
35324;SDS011;35135;47.510;19.036;2024-01-15T07:15:56;19.85;;;14.80;;
35324;SDS011;35135;47.510;19.036;2024-01-15T07:18:22;21.88;;;15.93;;
35324;SDS011;35135;47.510;19.036;2024-01-15T07:20:48;19.88;;;16.55;;
35324;SDS011;35135;47.510;19.036;2024-01-15T07:23:14;21.23;;;16.10;;
35324;SDS011;35135;47.510;19.036;2024-01-15T07:25:40;21.02;;;16.45;;
35324;SDS011;35135;47.510;19.036;2024-01-15T07:28:05;19.50;;;16.55;;
35324;SDS011;35135;47.510;19.036;2024-01-15T07:30:31;20.60;;;15.60;;
35324;SDS011;35135;47.510;19.036;2024-01-15T07:32:57;20.88;;;15.43;;
35324;SDS011;35135;47.510;19.036;2024-01-15T07:35:23;18.60;;;15.63;;
35324;SDS011;35135;47.510;19.036;2024-01-15T07:37:48;20.30;;;16.00;;
35324;SDS011;35135;47.510;19.036;2024-01-15T07:40:14;20.65;;;15.30;;
35324;SDS011;35135;47.510;19.036;2024-01-15T07:42:40;18.17;;;15.05;;
35324;SDS011;35135;47.510;19.036;2024-01-15T07:45:07;16.60;;;14.55;;
35324;SDS011;35135;47.510;19.036;2024-01-15T07:47:34;20.42;;;15.13;;
35324;SDS011;35135;47.510;19.036;2024-01-15T07:49:59;17.13;;;15.20;;
35324;SDS011;35135;47.510;19.036;2024-01-15T07:52:25;17.90;;;15.20;;
35324;SDS011;35135;47.510;19.036;2024-01-15T07:54:51;21.85;;;14.75;;
35324;SDS011;35135;47.510;19.036;2024-01-15T07:57:16;19.73;;;15.20;;
35324;SDS011;35135;47.510;19.036;2024-01-15T07:59:42;17.55;;;14.02;;
35324;SDS011;35135;47.510;19.036;2024-01-15T08:02:08;17.00;;;14.75;;
35324;SDS011;35135;47.510;19.036;2024-01-15T08:04:33;16.65;;;14.90;;
35324;SDS011;35135;47.510;19.036;2024-01-15T08:06:59;20.13;;;14.98;;
35324;SDS011;35135;47.510;19.036;2024-01-15T08:09:25;18.20;;;13.95;;
35324;SDS011;35135;47.510;19.036;2024-01-15T08:11:50;17.33;;;14.32;;
35324;SDS011;35135;47.510;19.036;2024-01-15T08:14:17;16.40;;;14.70;;
35324;SDS011;35135;47.510;19.036;2024-01-15T08:16:42;16.58;;;14.38;;
35324;SDS011;35135;47.510;19.036;2024-01-15T08:19:08;15.40;;;13.80;;
35324;SDS011;35135;47.510;19.036;2024-01-15T08:21:34;19.05;;;14.38;;
35324;SDS011;35135;47.510;19.036;2024-01-15T08:24:01;14.73;;;13.15;;
35324;SDS011;35135;47.510;19.036;2024-01-15T08:26:27;16.27;;;13.45;;
35324;SDS011;35135;47.510;19.036;2024-01-15T08:28:53;16.67;;;14.05;;
35324;SDS011;35135;47.510;19.036;2024-01-15T08:31:19;14.68;;;12.70;;
35324;SDS011;35135;47.510;19.036;2024-01-15T08:33:45;13.73;;;12.27;;
35324;SDS011;35135;47.510;19.036;2024-01-15T08:36:11;14.75;;;12.88;;
35324;SDS011;35135;47.510;19.036;2024-01-15T08:38:37;14.05;;;12.60;;
35324;SDS011;35135;47.510;19.036;2024-01-15T08:41:03;13.20;;;11.80;;
35324;SDS011;35135;47.510;19.036;2024-01-15T08:43:28;14.20;;;12.50;;
35324;SDS011;35135;47.510;19.036;2024-01-15T08:45:56;13.45;;;12.05;;
35324;SDS011;35135;47.510;19.036;2024-01-15T08:48:22;14.63;;;12.52;;
35324;SDS011;35135;47.510;19.036;2024-01-15T08:50:47;13.57;;;11.55;;
35324;SDS011;35135;47.510;19.036;2024-01-15T08:53:13;12.93;;;11.50;;
35324;SDS011;35135;47.510;19.036;2024-01-15T08:55:40;13.88;;;11.60;;
35324;SDS011;35135;47.510;19.036;2024-01-15T08:58:07;13.02;;;11.10;;
35324;SDS011;35135;47.510;19.036;2024-01-15T09:00:33;12.40;;;11.10;;
35324;SDS011;35135;47.510;19.036;2024-01-15T09:02:59;12.73;;;11.43;;
35324;SDS011;35135;47.510;19.036;2024-01-15T09:05:25;12.52;;;11.23;;
35324;SDS011;35135;47.510;19.036;2024-01-15T09:07:50;12.13;;;10.93;;
35324;SDS011;35135;47.510;19.036;2024-01-15T09:10:19;11.82;;;10.63;;
35324;SDS011;35135;47.510;19.036;2024-01-15T09:12:45;11.80;;;10.27;;
35324;SDS011;35135;47.510;19.036;2024-01-15T09:15:11;11.95;;;10.75;;
35324;SDS011;35135;47.510;19.036;2024-01-15T09:17:37;11.38;;;10.18;;
35324;SDS011;35135;47.510;19.036;2024-01-15T09:20:03;11.57;;;10.38;;
35324;SDS011;35135;47.510;19.036;2024-01-15T09:22:30;12.43;;;9.57;;
35324;SDS011;35135;47.510;19.036;2024-01-15T09:24:56;11.13;;;9.25;;
35324;SDS011;35135;47.510;19.036;2024-01-15T09:27:22;11.27;;;9.82;;
35324;SDS011;35135;47.510;19.036;2024-01-15T09:29:47;11.10;;;9.90;;
35324;SDS011;35135;47.510;19.036;2024-01-15T09:32:13;12.00;;;10.13;;
35324;SDS011;35135;47.510;19.036;2024-01-15T09:34:40;10.10;;;9.10;;
35324;SDS011;35135;47.510;19.036;2024-01-15T09:37:06;10.65;;;9.60;;
35324;SDS011;35135;47.510;19.036;2024-01-15T09:39:32;11.13;;;9.85;;
35324;SDS011;35135;47.510;19.036;2024-01-15T09:41:58;10.00;;;8.95;;
35324;SDS011;35135;47.510;19.036;2024-01-15T09:44:24;9.48;;;8.57;;
35324;SDS011;35135;47.510;19.036;2024-01-15T09:46:51;9.73;;;8.80;;
35324;SDS011;35135;47.510;19.036;2024-01-15T09:49:17;10.07;;;9.07;;
35324;SDS011;35135;47.510;19.036;2024-01-15T09:51:43;10.70;;;9.60;;
35324;SDS011;35135;47.510;19.036;2024-01-15T09:54:09;10.63;;;8.55;;
35324;SDS011;35135;47.510;19.036;2024-01-15T09:56:38;9.38;;;8.45;;
35324;SDS011;35135;47.510;19.036;2024-01-15T09:59:04;9.35;;;8.25;;
35324;SDS011;35135;47.510;19.036;2024-01-15T10:01:33;10.00;;;8.05;;
35324;SDS011;35135;47.510;19.036;2024-01-15T10:04:04;11.05;;;8.50;;
35324;SDS011;35135;47.510;19.036;2024-01-15T10:06:29;8.77;;;7.97;;
35324;SDS011;35135;47.510;19.036;2024-01-15T10:08:56;8.95;;;8.05;;
35324;SDS011;35135;47.510;19.036;2024-01-15T10:11:25;9.18;;;8.27;;
35324;SDS011;35135;47.510;19.036;2024-01-15T10:13:51;8.25;;;7.45;;
35324;SDS011;35135;47.510;19.036;2024-01-15T10:16:18;8.90;;;8.00;;
35324;SDS011;35135;47.510;19.036;2024-01-15T10:18:45;10.07;;;8.27;;
35324;SDS011;35135;47.510;19.036;2024-01-15T10:21:10;10.25;;;8.68;;
35324;SDS011;35135;47.510;19.036;2024-01-15T10:23:36;8.27;;;7.40;;
35324;SDS011;35135;47.510;19.036;2024-01-15T10:26:02;8.73;;;7.60;;
35324;SDS011;35135;47.510;19.036;2024-01-15T10:28:29;8.18;;;7.38;;
35324;SDS011;35135;47.510;19.036;2024-01-15T10:30:57;8.35;;;7.45;;
35324;SDS011;35135;47.510;19.036;2024-01-15T10:33:24;8.70;;;7.80;;
35324;SDS011;35135;47.510;19.036;2024-01-15T10:35:56;8.30;;;7.35;;
35324;SDS011;35135;47.510;19.036;2024-01-15T10:38:23;8.00;;;7.20;;
35324;SDS011;35135;47.510;19.036;2024-01-15T10:40:53;7.70;;;7.00;;
35324;SDS011;35135;47.510;19.036;2024-01-15T10:43:20;7.50;;;6.72;;
35324;SDS011;35135;47.510;19.036;2024-01-15T10:45:46;7.85;;;7.05;;
35324;SDS011;35135;47.510;19.036;2024-01-15T10:48:13;7.63;;;6.90;;
35324;SDS011;35135;47.510;19.036;2024-01-15T10:50:41;7.68;;;6.95;;
35324;SDS011;35135;47.510;19.036;2024-01-15T10:53:06;8.05;;;7.25;;
35324;SDS011;35135;47.510;19.036;2024-01-15T10:55:35;6.82;;;6.15;;
35324;SDS011;35135;47.510;19.036;2024-01-15T10:58:02;7.82;;;6.82;;
35324;SDS011;35135;47.510;19.036;2024-01-15T11:00:28;8.73;;;6.63;;
35324;SDS011;35135;47.510;19.036;2024-01-15T11:02:55;6.60;;;5.90;;
35324;SDS011;35135;47.510;19.036;2024-01-15T11:05:21;7.68;;;5.97;;
35324;SDS011;35135;47.510;19.036;2024-01-15T11:07:50;6.80;;;6.10;;
35324;SDS011;35135;47.510;19.036;2024-01-15T11:11:20;6.60;;;6.00;;
35324;SDS011;35135;47.510;19.036;2024-01-15T11:15:59;6.90;;;6.30;;
35324;SDS011;35135;47.510;19.036;2024-01-15T11:18:28;7.57;;;6.13;;
35324;SDS011;35135;47.510;19.036;2024-01-15T11:29:06;6.70;;;5.40;;
35324;SDS011;35135;47.510;19.036;2024-01-15T11:34:20;6.63;;;5.93;;
35324;SDS011;35135;47.510;19.036;2024-01-15T11:37:06;6.18;;;5.53;;
35324;SDS011;35135;47.510;19.036;2024-01-15T11:41:58;5.65;;;5.07;;
35324;SDS011;35135;47.510;19.036;2024-01-15T11:44:26;5.70;;;5.10;;
35324;SDS011;35135;47.510;19.036;2024-01-15T11:46:59;6.07;;;5.47;;
35324;SDS011;35135;47.510;19.036;2024-01-15T11:52:02;5.40;;;4.90;;
35324;SDS011;35135;47.510;19.036;2024-01-15T11:54:31;5.82;;;5.15;;
35324;SDS011;35135;47.510;19.036;2024-01-15T11:57:03;5.32;;;4.82;;
35324;SDS011;35135;47.510;19.036;2024-01-15T11:59:34;5.93;;;5.20;;
35324;SDS011;35135;47.510;19.036;2024-01-15T12:02:01;5.50;;;4.45;;
35324;SDS011;35135;47.510;19.036;2024-01-15T12:04:28;5.68;;;4.85;;
35324;SDS011;35135;47.510;19.036;2024-01-15T12:06:53;6.22;;;5.05;;
35324;SDS011;35135;47.510;19.036;2024-01-15T12:09:19;5.63;;;5.05;;
35324;SDS011;35135;47.510;19.036;2024-01-15T12:11:48;5.20;;;4.63;;
35324;SDS011;35135;47.510;19.036;2024-01-15T12:14:20;5.93;;;4.53;;
35324;SDS011;35135;47.510;19.036;2024-01-15T12:16:47;4.80;;;4.35;;
35324;SDS011;35135;47.510;19.036;2024-01-15T12:19:13;5.32;;;4.55;;
35324;SDS011;35135;47.510;19.036;2024-01-15T12:21:41;5.53;;;4.72;;
35324;SDS011;35135;47.510;19.036;2024-01-15T12:24:09;5.00;;;4.50;;
35324;SDS011;35135;47.510;19.036;2024-01-15T12:26:35;4.78;;;4.25;;
35324;SDS011;35135;47.510;19.036;2024-01-15T12:29:01;5.00;;;4.32;;
35324;SDS011;35135;47.510;19.036;2024-01-15T12:31:27;5.20;;;4.70;;
35324;SDS011;35135;47.510;19.036;2024-01-15T12:33:55;4.97;;;4.47;;
35324;SDS011;35135;47.510;19.036;2024-01-15T12:36:21;5.10;;;4.60;;
35324;SDS011;35135;47.510;19.036;2024-01-15T12:38:47;4.22;;;3.83;;
35324;SDS011;35135;47.510;19.036;2024-01-15T12:41:12;4.47;;;4.00;;
35324;SDS011;35135;47.510;19.036;2024-01-15T12:43:38;4.72;;;4.20;;
35324;SDS011;35135;47.510;19.036;2024-01-15T12:46:06;4.57;;;4.18;;
35324;SDS011;35135;47.510;19.036;2024-01-15T12:48:32;5.47;;;4.18;;
35324;SDS011;35135;47.510;19.036;2024-01-15T12:50:58;4.38;;;3.97;;
35324;SDS011;35135;47.510;19.036;2024-01-15T12:53:23;5.18;;;3.95;;
35324;SDS011;35135;47.510;19.036;2024-01-15T12:55:49;6.63;;;4.45;;
35324;SDS011;35135;47.510;19.036;2024-01-15T12:58:15;7.55;;;4.15;;
35324;SDS011;35135;47.510;19.036;2024-01-15T13:00:40;6.85;;;3.72;;
35324;SDS011;35135;47.510;19.036;2024-01-15T13:03:06;6.72;;;4.22;;
35324;SDS011;35135;47.510;19.036;2024-01-15T13:05:32;7.15;;;3.60;;
35324;SDS011;35135;47.510;19.036;2024-01-15T13:07:59;6.63;;;3.83;;
35324;SDS011;35135;47.510;19.036;2024-01-15T13:10:25;5.78;;;3.85;;
35324;SDS011;35135;47.510;19.036;2024-01-15T13:12:51;5.68;;;4.05;;
35324;SDS011;35135;47.510;19.036;2024-01-15T13:15:16;9.25;;;4.20;;
35324;SDS011;35135;47.510;19.036;2024-01-15T13:17:42;5.75;;;3.97;;
35324;SDS011;35135;47.510;19.036;2024-01-15T13:20:08;9.18;;;4.13;;
35324;SDS011;35135;47.510;19.036;2024-01-15T13:22:35;7.50;;;4.13;;
35324;SDS011;35135;47.510;19.036;2024-01-15T13:25:04;8.00;;;3.88;;
35324;SDS011;35135;47.510;19.036;2024-01-15T13:27:32;7.35;;;3.75;;
35324;SDS011;35135;47.510;19.036;2024-01-15T13:29:59;8.57;;;3.83;;
35324;SDS011;35135;47.510;19.036;2024-01-15T13:32:26;9.68;;;4.10;;
35324;SDS011;35135;47.510;19.036;2024-01-15T13:34:54;9.00;;;4.47;;
35324;SDS011;35135;47.510;19.036;2024-01-15T13:37:20;6.15;;;4.10;;
35324;SDS011;35135;47.510;19.036;2024-01-15T13:39:46;6.93;;;3.58;;
35324;SDS011;35135;47.510;19.036;2024-01-15T13:42:12;6.88;;;3.97;;
35324;SDS011;35135;47.510;19.036;2024-01-15T13:44:37;11.00;;;4.18;;
35324;SDS011;35135;47.510;19.036;2024-01-15T13:47:03;7.85;;;3.67;;
35324;SDS011;35135;47.510;19.036;2024-01-15T13:49:30;6.40;;;3.67;;
35324;SDS011;35135;47.510;19.036;2024-01-15T13:51:56;6.70;;;3.42;;
35324;SDS011;35135;47.510;19.036;2024-01-15T13:54:22;6.60;;;3.58;;
35324;SDS011;35135;47.510;19.036;2024-01-15T13:56:47;5.53;;;3.92;;
35324;SDS011;35135;47.510;19.036;2024-01-15T13:59:14;9.55;;;3.90;;
35324;SDS011;35135;47.510;19.036;2024-01-15T14:01:40;6.25;;;4.10;;
35324;SDS011;35135;47.510;19.036;2024-01-15T14:04:07;10.13;;;3.97;;
35324;SDS011;35135;47.510;19.036;2024-01-15T14:06:33;6.55;;;3.72;;
35324;SDS011;35135;47.510;19.036;2024-01-15T14:08:58;5.90;;;3.20;;
35324;SDS011;35135;47.510;19.036;2024-01-15T14:11:24;11.45;;;4.00;;
35324;SDS011;35135;47.510;19.036;2024-01-15T14:13:50;12.75;;;4.25;;
35324;SDS011;35135;47.510;19.036;2024-01-15T14:16:16;13.05;;;3.90;;
35324;SDS011;35135;47.510;19.036;2024-01-15T14:18:41;10.48;;;4.00;;
35324;SDS011;35135;47.510;19.036;2024-01-15T14:21:07;12.02;;;4.10;;
35324;SDS011;35135;47.510;19.036;2024-01-15T14:23:33;14.02;;;4.53;;
35324;SDS011;35135;47.510;19.036;2024-01-15T14:25:59;11.35;;;3.60;;
35324;SDS011;35135;47.510;19.036;2024-01-15T14:28:24;16.40;;;4.40;;
35324;SDS011;35135;47.510;19.036;2024-01-15T14:30:50;12.45;;;4.20;;